Terminal Aerodrome Forecast
Issued by NWS

Home | Current Version | Previous Version | Text Only | Print | Product List | Glossary On
Versions: 1 2 3 4 5 6 7 8 9 10 11 12 13 14 15
000
FTUS46 KSEW 171400 AAA
TAFCLM
TAF AMD
KCLM 171417Z 1714/1812 VRB03KT P6SM SCT015 OVC060
      TEMPO 1714/1717 -RA BKN015 OVC060
     FM171700 VRB03KT 5SM -RA BR SCT007 OVC015
      TEMPO 1717/1719 2SM -RA BR BKN007 OVC015
     FM172100 29010KT P6SM -SHRA SCT015 BKN025 OVC040
     FM180200 29010KT P6SM SCT025 BKN040=

USA.gov is the U.S. government's official web portal to all federal, state and local government web resources and services.